sensor_id;sensor_type;location;lat;lon;timestamp;P1;durP1;ratioP1;P2;durP2;ratioP2
81896;SDS011;71360;43.506;1.500;2024-03-22T00:00:42;20.98;;;8.73;;
81896;SDS011;71360;43.506;1.500;2024-03-22T00:03:07;24.10;;;9.03;;
81896;SDS011;71360;43.506;1.500;2024-03-22T00:05:33;20.53;;;8.70;;
81896;SDS011;71360;43.506;1.500;2024-03-22T00:07:58;27.55;;;9.30;;
81896;SDS011;71360;43.506;1.500;2024-03-22T00:10:24;24.10;;;9.43;;
81896;SDS011;71360;43.506;1.500;2024-03-22T00:12:49;20.67;;;9.13;;
81896;SDS011;71360;43.506;1.500;2024-03-22T00:15:15;22.60;;;9.93;;
81896;SDS011;71360;43.506;1.500;2024-03-22T00:17:42;19.30;;;9.70;;
81896;SDS011;71360;43.506;1.500;2024-03-22T00:20:08;24.77;;;9.70;;
81896;SDS011;71360;43.506;1.500;2024-03-22T00:22:34;23.77;;;9.85;;
81896;SDS011;71360;43.506;1.500;2024-03-22T00:25:00;19.40;;;9.70;;
81896;SDS011;71360;43.506;1.500;2024-03-22T00:27:25;23.00;;;9.70;;
81896;SDS011;71360;43.506;1.500;2024-03-22T00:29:51;23.43;;;9.67;;
81896;SDS011;71360;43.506;1.500;2024-03-22T00:32:16;22.67;;;9.20;;
81896;SDS011;71360;43.506;1.500;2024-03-22T00:34:42;19.08;;;8.90;;
81896;SDS011;71360;43.506;1.500;2024-03-22T00:37:08;24.80;;;10.00;;
81896;SDS011;71360;43.506;1.500;2024-03-22T00:39:33;23.20;;;9.80;;
81896;SDS011;71360;43.506;1.500;2024-03-22T00:41:59;23.77;;;9.47;;
81896;SDS011;71360;43.506;1.500;2024-03-22T00:44:24;22.48;;;9.82;;
81896;SDS011;71360;43.506;1.500;2024-03-22T00:46:50;24.77;;;9.67;;
81896;SDS011;71360;43.506;1.500;2024-03-22T00:49:15;25.67;;;9.70;;
81896;SDS011;71360;43.506;1.500;2024-03-22T00:51:41;22.70;;;9.30;;
81896;SDS011;71360;43.506;1.500;2024-03-22T00:54:09;20.38;;;9.10;;
81896;SDS011;71360;43.506;1.500;2024-03-22T00:56:34;19.15;;;8.82;;
81896;SDS011;71360;43.506;1.500;2024-03-22T00:59:00;23.57;;;9.80;;
81896;SDS011;71360;43.506;1.500;2024-03-22T01:01:25;16.77;;;8.80;;
81896;SDS011;71360;43.506;1.500;2024-03-22T01:03:51;21.85;;;9.10;;
81896;SDS011;71360;43.506;1.500;2024-03-22T01:06:16;26.83;;;9.17;;
81896;SDS011;71360;43.506;1.500;2024-03-22T01:08:47;25.10;;;9.55;;
81896;SDS011;71360;43.506;1.500;2024-03-22T01:11:13;20.83;;;10.03;;
81896;SDS011;71360;43.506;1.500;2024-03-22T01:13:38;25.08;;;9.30;;
81896;SDS011;71360;43.506;1.500;2024-03-22T01:16:04;26.80;;;9.80;;
81896;SDS011;71360;43.506;1.500;2024-03-22T01:18:30;23.67;;;9.63;;
81896;SDS011;71360;43.506;1.500;2024-03-22T01:20:55;24.23;;;9.37;;
81896;SDS011;71360;43.506;1.500;2024-03-22T01:23:21;23.63;;;9.23;;
81896;SDS011;71360;43.506;1.500;2024-03-22T01:25:46;20.85;;;9.13;;
81896;SDS011;71360;43.506;1.500;2024-03-22T01:28:12;23.40;;;9.40;;
81896;SDS011;71360;43.506;1.500;2024-03-22T01:30:37;21.27;;;8.93;;
81896;SDS011;71360;43.506;1.500;2024-03-22T01:33:03;18.75;;;8.48;;
81896;SDS011;71360;43.506;1.500;2024-03-22T01:35:29;18.10;;;8.17;;
81896;SDS011;71360;43.506;1.500;2024-03-22T01:37:54;22.33;;;8.60;;
81896;SDS011;71360;43.506;1.500;2024-03-22T01:40:20;20.73;;;8.50;;
81896;SDS011;71360;43.506;1.500;2024-03-22T01:42:45;24.50;;;8.70;;
81896;SDS011;71360;43.506;1.500;2024-03-22T01:45:12;22.33;;;8.48;;
81896;SDS011;71360;43.506;1.500;2024-03-22T01:47:40;18.98;;;8.52;;
81896;SDS011;71360;43.506;1.500;2024-03-22T01:50:06;17.88;;;7.88;;
81896;SDS011;71360;43.506;1.500;2024-03-22T01:52:32;21.92;;;7.88;;
81896;SDS011;71360;43.506;1.500;2024-03-22T01:54:58;18.57;;;7.80;;
81896;SDS011;71360;43.506;1.500;2024-03-22T01:57:24;20.23;;;7.22;;
81896;SDS011;71360;43.506;1.500;2024-03-22T01:59:50;18.37;;;7.47;;
81896;SDS011;71360;43.506;1.500;2024-03-22T02:02:19;19.00;;;7.00;;
81896;SDS011;71360;43.506;1.500;2024-03-22T02:04:44;18.17;;;7.32;;
81896;SDS011;71360;43.506;1.500;2024-03-22T02:07:10;19.23;;;7.90;;
81896;SDS011;71360;43.506;1.500;2024-03-22T02:09:35;19.20;;;8.03;;
81896;SDS011;71360;43.506;1.500;2024-03-22T02:12:02;24.50;;;8.32;;
81896;SDS011;71360;43.506;1.500;2024-03-22T02:14:28;22.17;;;8.30;;
81896;SDS011;71360;43.506;1.500;2024-03-22T02:16:53;19.63;;;8.25;;
81896;SDS011;71360;43.506;1.500;2024-03-22T02:19:19;16.13;;;7.57;;
81896;SDS011;71360;43.506;1.500;2024-03-22T02:21:44;17.50;;;7.00;;
81896;SDS011;71360;43.506;1.500;2024-03-22T02:24:10;18.08;;;7.30;;
81896;SDS011;71360;43.506;1.500;2024-03-22T02:26:35;19.30;;;6.83;;
81896;SDS011;71360;43.506;1.500;2024-03-22T02:29:01;20.33;;;7.10;;
81896;SDS011;71360;43.506;1.500;2024-03-22T02:31:26;20.40;;;7.05;;
81896;SDS011;71360;43.506;1.500;2024-03-22T02:33:52;18.03;;;7.03;;
81896;SDS011;71360;43.506;1.500;2024-03-22T02:36:17;16.40;;;7.43;;
81896;SDS011;71360;43.506;1.500;2024-03-22T02:38:43;19.73;;;7.75;;
81896;SDS011;71360;43.506;1.500;2024-03-22T02:41:08;19.33;;;8.03;;
81896;SDS011;71360;43.506;1.500;2024-03-22T02:43:34;21.43;;;8.40;;
81896;SDS011;71360;43.506;1.500;2024-03-22T02:45:59;21.07;;;8.37;;
81896;SDS011;71360;43.506;1.500;2024-03-22T02:48:25;19.53;;;8.47;;
81896;SDS011;71360;43.506;1.500;2024-03-22T02:50:54;17.00;;;8.05;;
81896;SDS011;71360;43.506;1.500;2024-03-22T02:53:21;19.67;;;7.90;;
81896;SDS011;71360;43.506;1.500;2024-03-22T02:55:46;22.23;;;7.97;;
81896;SDS011;71360;43.506;1.500;2024-03-22T02:58:12;21.73;;;7.80;;
81896;SDS011;71360;43.506;1.500;2024-03-22T03:00:38;20.77;;;8.00;;
81896;SDS011;71360;43.506;1.500;2024-03-22T03:03:07;20.60;;;8.57;;
81896;SDS011;71360;43.506;1.500;2024-03-22T03:05:32;19.40;;;7.78;;
81896;SDS011;71360;43.506;1.500;2024-03-22T03:07:58;22.73;;;8.57;;
81896;SDS011;71360;43.506;1.500;2024-03-22T03:10:24;23.17;;;8.97;;
81896;SDS011;71360;43.506;1.500;2024-03-22T03:12:50;21.77;;;9.15;;
81896;SDS011;71360;43.506;1.500;2024-03-22T03:15:15;23.77;;;9.27;;
81896;SDS011;71360;43.506;1.500;2024-03-22T03:17:41;26.33;;;9.93;;
81896;SDS011;71360;43.506;1.500;2024-03-22T03:20:10;22.88;;;9.38;;
81896;SDS011;71360;43.506;1.500;2024-03-22T03:22:41;21.37;;;9.37;;
81896;SDS011;71360;43.506;1.500;2024-03-22T03:25:09;22.83;;;9.48;;
81896;SDS011;71360;43.506;1.500;2024-03-22T03:27:35;24.15;;;9.93;;
81896;SDS011;71360;43.506;1.500;2024-03-22T03:30:00;23.20;;;9.97;;
81896;SDS011;71360;43.506;1.500;2024-03-22T03:32:27;24.38;;;10.45;;
81896;SDS011;71360;43.506;1.500;2024-03-22T03:34:53;26.35;;;10.10;;
81896;SDS011;71360;43.506;1.500;2024-03-22T03:37:19;24.30;;;10.10;;
81896;SDS011;71360;43.506;1.500;2024-03-22T03:39:44;24.23;;;9.57;;
81896;SDS011;71360;43.506;1.500;2024-03-22T03:42:10;20.83;;;8.88;;
81896;SDS011;71360;43.506;1.500;2024-03-22T03:44:35;25.23;;;10.30;;
81896;SDS011;71360;43.506;1.500;2024-03-22T03:47:01;25.03;;;9.87;;
81896;SDS011;71360;43.506;1.500;2024-03-22T03:49:27;22.98;;;10.27;;
81896;SDS011;71360;43.506;1.500;2024-03-22T03:51:53;20.15;;;9.35;;
81896;SDS011;71360;43.506;1.500;2024-03-22T03:54:18;26.43;;;10.43;;
81896;SDS011;71360;43.506;1.500;2024-03-22T03:56:44;19.83;;;9.40;;
81896;SDS011;71360;43.506;1.500;2024-03-22T03:59:09;22.73;;;9.85;;
81896;SDS011;71360;43.506;1.500;2024-03-22T04:01:35;19.63;;;9.07;;
81896;SDS011;71360;43.506;1.500;2024-03-22T04:04:00;17.80;;;8.57;;
81896;SDS011;71360;43.506;1.500;2024-03-22T04:06:27;24.55;;;9.63;;
81896;SDS011;71360;43.506;1.500;2024-03-22T04:08:52;21.47;;;8.63;;
81896;SDS011;71360;43.506;1.500;2024-03-22T04:11:18;21.60;;;8.93;;
81896;SDS011;71360;43.506;1.500;2024-03-22T04:13:43;22.60;;;9.23;;
81896;SDS011;71360;43.506;1.500;2024-03-22T04:16:09;20.10;;;8.80;;
81896;SDS011;71360;43.506;1.500;2024-03-22T04:18:34;20.27;;;9.07;;
81896;SDS011;71360;43.506;1.500;2024-03-22T04:21:01;22.80;;;9.43;;
81896;SDS011;71360;43.506;1.500;2024-03-22T04:23:26;20.88;;;8.52;;
81896;SDS011;71360;43.506;1.500;2024-03-22T04:25:55;23.10;;;9.60;;
81896;SDS011;71360;43.506;1.500;2024-03-22T04:28:25;17.58;;;9.25;;
81896;SDS011;71360;43.506;1.500;2024-03-22T04:30:55;20.27;;;9.88;;
81896;SDS011;71360;43.506;1.500;2024-03-22T04:33:25;21.95;;;9.60;;
81896;SDS011;71360;43.506;1.500;2024-03-22T04:35:50;20.50;;;9.40;;
81896;SDS011;71360;43.506;1.500;2024-03-22T04:38:16;22.35;;;9.75;;
81896;SDS011;71360;43.506;1.500;2024-03-22T04:40:42;19.97;;;9.20;;
81896;SDS011;71360;43.506;1.500;2024-03-22T04:43:07;22.25;;;10.25;;
81896;SDS011;71360;43.506;1.500;2024-03-22T04:45:33;25.20;;;10.20;;
81896;SDS011;71360;43.506;1.500;2024-03-22T04:48:00;22.63;;;10.07;;
81896;SDS011;71360;43.506;1.500;2024-03-22T04:50:27;20.27;;;10.02;;
81896;SDS011;71360;43.506;1.500;2024-03-22T04:52:52;19.97;;;9.63;;
81896;SDS011;71360;43.506;1.500;2024-03-22T04:55:18;24.37;;;10.17;;
81896;SDS011;71360;43.506;1.500;2024-03-22T04:57:43;19.65;;;8.95;;
81896;SDS011;71360;43.506;1.500;2024-03-22T05:00:09;26.03;;;10.00;;
81896;SDS011;71360;43.506;1.500;2024-03-22T05:02:35;22.92;;;9.70;;
81896;SDS011;71360;43.506;1.500;2024-03-22T05:05:00;20.73;;;9.27;;
81896;SDS011;71360;43.506;1.500;2024-03-22T05:07:26;20.50;;;9.73;;
81896;SDS011;71360;43.506;1.500;2024-03-22T05:09:52;19.70;;;10.18;;
81896;SDS011;71360;43.506;1.500;2024-03-22T05:12:17;24.85;;;10.77;;
81896;SDS011;71360;43.506;1.500;2024-03-22T05:14:43;18.97;;;9.13;;
81896;SDS011;71360;43.506;1.500;2024-03-22T05:17:09;21.52;;;9.48;;
81896;SDS011;71360;43.506;1.500;2024-03-22T05:19:34;22.07;;;9.97;;
81896;SDS011;71360;43.506;1.500;2024-03-22T05:22:00;21.33;;;10.33;;
81896;SDS011;71360;43.506;1.500;2024-03-22T05:24:26;24.88;;;10.38;;
81896;SDS011;71360;43.506;1.500;2024-03-22T05:26:52;25.45;;;10.60;;
81896;SDS011;71360;43.506;1.500;2024-03-22T05:29:18;23.63;;;10.63;;
81896;SDS011;71360;43.506;1.500;2024-03-22T05:31:47;23.48;;;10.95;;
81896;SDS011;71360;43.506;1.500;2024-03-22T05:34:14;23.23;;;10.57;;
81896;SDS011;71360;43.506;1.500;2024-03-22T05:36:40;25.07;;;11.20;;
81896;SDS011;71360;43.506;1.500;2024-03-22T05:39:06;23.42;;;10.93;;
81896;SDS011;71360;43.506;1.500;2024-03-22T05:41:31;29.50;;;10.70;;
81896;SDS011;71360;43.506;1.500;2024-03-22T05:43:57;26.53;;;11.47;;
81896;SDS011;71360;43.506;1.500;2024-03-22T05:46:22;26.73;;;11.10;;
81896;SDS011;71360;43.506;1.500;2024-03-22T05:48:48;26.73;;;10.83;;
81896;SDS011;71360;43.506;1.500;2024-03-22T05:51:15;28.15;;;11.25;;
81896;SDS011;71360;43.506;1.500;2024-03-22T05:53:41;29.20;;;12.30;;
81896;SDS011;71360;43.506;1.500;2024-03-22T05:56:07;26.65;;;11.75;;
81896;SDS011;71360;43.506;1.500;2024-03-22T05:58:34;22.60;;;11.13;;
81896;SDS011;71360;43.506;1.500;2024-03-22T06:01:01;26.67;;;11.45;;
81896;SDS011;71360;43.506;1.500;2024-03-22T06:03:28;26.38;;;11.55;;
81896;SDS011;71360;43.506;1.500;2024-03-22T06:05:53;27.00;;;11.45;;
81896;SDS011;71360;43.506;1.500;2024-03-22T06:08:21;30.50;;;11.43;;
81896;SDS011;71360;43.506;1.500;2024-03-22T06:10:48;26.90;;;11.45;;
81896;SDS011;71360;43.506;1.500;2024-03-22T06:13:13;25.33;;;10.93;;
81896;SDS011;71360;43.506;1.500;2024-03-22T06:15:40;26.83;;;11.27;;
81896;SDS011;71360;43.506;1.500;2024-03-22T06:18:10;23.33;;;10.77;;
81896;SDS011;71360;43.506;1.500;2024-03-22T06:20:36;24.93;;;11.23;;
81896;SDS011;71360;43.506;1.500;2024-03-22T06:23:02;29.05;;;11.73;;
81896;SDS011;71360;43.506;1.500;2024-03-22T06:25:27;25.37;;;11.73;;
81896;SDS011;71360;43.506;1.500;2024-03-22T06:27:53;28.20;;;12.00;;
81896;SDS011;71360;43.506;1.500;2024-03-22T06:30:18;27.70;;;10.63;;
81896;SDS011;71360;43.506;1.500;2024-03-22T06:32:44;24.27;;;11.10;;
81896;SDS011;71360;43.506;1.500;2024-03-22T06:35:10;26.75;;;10.90;;
81896;SDS011;71360;43.506;1.500;2024-03-22T06:37:37;27.73;;;10.83;;
81896;SDS011;71360;43.506;1.500;2024-03-22T06:40:03;29.23;;;11.07;;
81896;SDS011;71360;43.506;1.500;2024-03-22T06:42:30;23.20;;;9.90;;
81896;SDS011;71360;43.506;1.500;2024-03-22T06:44:55;21.87;;;10.17;;
81896;SDS011;71360;43.506;1.500;2024-03-22T06:47:21;26.45;;;11.93;;
81896;SDS011;71360;43.506;1.500;2024-03-22T06:49:48;22.73;;;11.18;;
81896;SDS011;71360;43.506;1.500;2024-03-22T06:52:14;20.57;;;9.83;;
81896;SDS011;71360;43.506;1.500;2024-03-22T06:54:40;25.70;;;12.55;;
81896;SDS011;71360;43.506;1.500;2024-03-22T06:57:06;29.83;;;14.65;;
81896;SDS011;71360;43.506;1.500;2024-03-22T06:59:31;21.47;;;10.73;;
81896;SDS011;71360;43.506;1.500;2024-03-22T07:01:57;23.88;;;9.85;;
81896;SDS011;71360;43.506;1.500;2024-03-22T07:04:23;23.93;;;9.63;;
81896;SDS011;71360;43.506;1.500;2024-03-22T07:06:48;22.33;;;10.00;;
81896;SDS011;71360;43.506;1.500;2024-03-22T07:09:14;20.73;;;9.97;;
81896;SDS011;71360;43.506;1.500;2024-03-22T07:11:40;20.10;;;10.50;;
81896;SDS011;71360;43.506;1.500;2024-03-22T07:14:06;21.73;;;9.60;;
81896;SDS011;71360;43.506;1.500;2024-03-22T07:16:32;26.95;;;9.80;;
81896;SDS011;71360;43.506;1.500;2024-03-22T07:18:57;16.60;;;9.17;;
81896;SDS011;71360;43.506;1.500;2024-03-22T07:21:23;19.77;;;9.83;;
81896;SDS011;71360;43.506;1.500;2024-03-22T07:23:48;20.65;;;10.23;;
81896;SDS011;71360;43.506;1.500;2024-03-22T07:26:14;22.87;;;10.57;;
81896;SDS011;71360;43.506;1.500;2024-03-22T07:28:39;19.10;;;10.23;;
81896;SDS011;71360;43.506;1.500;2024-03-22T07:31:05;20.10;;;9.77;;
81896;SDS011;71360;43.506;1.500;2024-03-22T07:33:31;25.63;;;10.90;;
81896;SDS011;71360;43.506;1.500;2024-03-22T07:36:01;21.00;;;10.57;;
81896;SDS011;71360;43.506;1.500;2024-03-22T07:38:27;21.35;;;10.63;;
81896;SDS011;71360;43.506;1.500;2024-03-22T07:40:52;19.90;;;10.10;;
81896;SDS011;71360;43.506;1.500;2024-03-22T07:43:18;20.17;;;9.97;;
81896;SDS011;71360;43.506;1.500;2024-03-22T07:45:43;24.75;;;11.20;;
81896;SDS011;71360;43.506;1.500;2024-03-22T07:48:09;21.77;;;10.73;;
81896;SDS011;71360;43.506;1.500;2024-03-22T07:50:35;21.35;;;10.98;;
81896;SDS011;71360;43.506;1.500;2024-03-22T07:53:01;24.73;;;10.60;;
81896;SDS011;71360;43.506;1.500;2024-03-22T07:55:26;22.85;;;10.15;;
81896;SDS011;71360;43.506;1.500;2024-03-22T07:57:52;23.70;;;10.47;;
81896;SDS011;71360;43.506;1.500;2024-03-22T08:00:18;23.20;;;11.93;;
81896;SDS011;71360;43.506;1.500;2024-03-22T08:02:43;25.30;;;11.47;;
81896;SDS011;71360;43.506;1.500;2024-03-22T08:05:09;22.25;;;11.50;;
81896;SDS011;71360;43.506;1.500;2024-03-22T08:07:34;21.23;;;10.40;;
81896;SDS011;71360;43.506;1.500;2024-03-22T08:10:00;21.23;;;10.90;;
81896;SDS011;71360;43.506;1.500;2024-03-22T08:12:27;24.65;;;10.48;;
81896;SDS011;71360;43.506;1.500;2024-03-22T08:14:53;21.17;;;10.23;;
81896;SDS011;71360;43.506;1.500;2024-03-22T08:17:19;21.50;;;10.70;;
81896;SDS011;71360;43.506;1.500;2024-03-22T08:19:44;23.45;;;10.52;;
81896;SDS011;71360;43.506;1.500;2024-03-22T08:22:10;22.67;;;10.10;;
81896;SDS011;71360;43.506;1.500;2024-03-22T08:24:36;20.60;;;9.65;;
81896;SDS011;71360;43.506;1.500;2024-03-22T08:27:02;20.47;;;9.80;;
81896;SDS011;71360;43.506;1.500;2024-03-22T08:29:28;21.08;;;9.50;;
81896;SDS011;71360;43.506;1.500;2024-03-22T08:31:54;22.60;;;9.68;;
81896;SDS011;71360;43.506;1.500;2024-03-22T08:34:20;20.07;;;10.07;;
81896;SDS011;71360;43.506;1.500;2024-03-22T08:36:47;19.73;;;9.88;;
81896;SDS011;71360;43.506;1.500;2024-03-22T08:39:12;19.35;;;8.98;;
81896;SDS011;71360;43.506;1.500;2024-03-22T08:41:38;20.30;;;9.50;;
81896;SDS011;71360;43.506;1.500;2024-03-22T08:44:05;25.00;;;9.70;;
81896;SDS011;71360;43.506;1.500;2024-03-22T08:46:30;18.10;;;9.17;;
81896;SDS011;71360;43.506;1.500;2024-03-22T08:48:57;17.95;;;9.00;;
81896;SDS011;71360;43.506;1.500;2024-03-22T08:51:23;21.53;;;9.43;;
81896;SDS011;71360;43.506;1.500;2024-03-22T08:53:48;20.23;;;9.50;;
81896;SDS011;71360;43.506;1.500;2024-03-22T08:56:14;22.50;;;9.30;;
81896;SDS011;71360;43.506;1.500;2024-03-22T08:58:39;19.50;;;8.70;;
81896;SDS011;71360;43.506;1.500;2024-03-22T09:01:05;17.75;;;8.60;;
81896;SDS011;71360;43.506;1.500;2024-03-22T09:03:31;19.35;;;8.55;;
81896;SDS011;71360;43.506;1.500;2024-03-22T09:05:56;21.17;;;8.73;;
81896;SDS011;71360;43.506;1.500;2024-03-22T09:08:23;20.50;;;8.40;;
81896;SDS011;71360;43.506;1.500;2024-03-22T09:10:48;20.20;;;9.20;;
81896;SDS011;71360;43.506;1.500;2024-03-22T09:13:14;21.80;;;9.83;;
81896;SDS011;71360;43.506;1.500;2024-03-22T09:15:39;15.13;;;8.32;;
81896;SDS011;71360;43.506;1.500;2024-03-22T09:18:05;18.03;;;8.53;;
81896;SDS011;71360;43.506;1.500;2024-03-22T09:20:31;17.80;;;8.37;;
81896;SDS011;71360;43.506;1.500;2024-03-22T09:22:57;21.58;;;8.10;;
81896;SDS011;71360;43.506;1.500;2024-03-22T09:25:25;19.37;;;9.00;;
81896;SDS011;71360;43.506;1.500;2024-03-22T09:27:51;19.50;;;8.30;;
81896;SDS011;71360;43.506;1.500;2024-03-22T09:30:16;20.63;;;8.63;;
81896;SDS011;71360;43.506;1.500;2024-03-22T09:32:42;17.80;;;8.35;;
81896;SDS011;71360;43.506;1.500;2024-03-22T09:35:10;18.60;;;8.27;;
81896;SDS011;71360;43.506;1.500;2024-03-22T09:37:40;16.92;;;7.88;;
81896;SDS011;71360;43.506;1.500;2024-03-22T09:40:06;17.10;;;8.20;;
81896;SDS011;71360;43.506;1.500;2024-03-22T09:42:32;19.58;;;7.90;;
81896;SDS011;71360;43.506;1.500;2024-03-22T09:45:04;16.15;;;8.30;;
81896;SDS011;71360;43.506;1.500;2024-03-22T09:47:33;16.30;;;7.40;;
81896;SDS011;71360;43.506;1.500;2024-03-22T09:49:59;15.95;;;7.50;;
81896;SDS011;71360;43.506;1.500;2024-03-22T09:52:26;16.40;;;6.95;;
81896;SDS011;71360;43.506;1.500;2024-03-22T09:54:53;17.77;;;7.20;;
81896;SDS011;71360;43.506;1.500;2024-03-22T09:57:18;17.87;;;7.30;;
81896;SDS011;71360;43.506;1.500;2024-03-22T09:59:46;21.67;;;7.60;;
81896;SDS011;71360;43.506;1.500;2024-03-22T10:02:12;19.20;;;7.20;;
81896;SDS011;71360;43.506;1.500;2024-03-22T10:04:40;16.67;;;7.38;;
81896;SDS011;71360;43.506;1.500;2024-03-22T10:07:06;20.13;;;8.10;;
81896;SDS011;71360;43.506;1.500;2024-03-22T10:09:35;19.70;;;7.40;;
81896;SDS011;71360;43.506;1.500;2024-03-22T10:12:01;16.80;;;7.40;;
81896;SDS011;71360;43.506;1.500;2024-03-22T10:14:28;17.67;;;8.00;;
81896;SDS011;71360;43.506;1.500;2024-03-22T10:16:54;19.02;;;7.65;;
81896;SDS011;71360;43.506;1.500;2024-03-22T10:19:20;18.55;;;7.55;;
81896;SDS011;71360;43.506;1.500;2024-03-22T10:22:07;22.77;;;7.60;;
81896;SDS011;71360;43.506;1.500;2024-03-22T10:24:32;20.27;;;8.23;;
81896;SDS011;71360;43.506;1.500;2024-03-22T10:26:58;20.83;;;8.13;;
81896;SDS011;71360;43.506;1.500;2024-03-22T10:29:24;16.90;;;7.82;;
81896;SDS011;71360;43.506;1.500;2024-03-22T10:31:53;15.63;;;7.20;;
81896;SDS011;71360;43.506;1.500;2024-03-22T10:34:24;16.58;;;7.72;;
81896;SDS011;71360;43.506;1.500;2024-03-22T10:36:50;16.77;;;7.30;;
81896;SDS011;71360;43.506;1.500;2024-03-22T10:39:19;20.60;;;7.30;;
81896;SDS011;71360;43.506;1.500;2024-03-22T10:41:48;16.20;;;7.10;;
81896;SDS011;71360;43.506;1.500;2024-03-22T10:44:14;16.58;;;6.78;;
81896;SDS011;71360;43.506;1.500;2024-03-22T10:46:43;16.55;;;6.85;;
81896;SDS011;71360;43.506;1.500;2024-03-22T10:49:11;18.42;;;7.20;;
81896;SDS011;71360;43.506;1.500;2024-03-22T10:51:54;17.40;;;6.68;;
81896;SDS011;71360;43.506;1.500;2024-03-22T10:54:27;16.40;;;7.10;;
81896;SDS011;71360;43.506;1.500;2024-03-22T10:56:57;18.52;;;7.30;;
81896;SDS011;71360;43.506;1.500;2024-03-22T10:59:23;15.45;;;6.63;;
81896;SDS011;71360;43.506;1.500;2024-03-22T11:01:49;15.43;;;6.83;;
81896;SDS011;71360;43.506;1.500;2024-03-22T11:04:19;17.33;;;7.28;;
81896;SDS011;71360;43.506;1.500;2024-03-22T11:06:51;18.58;;;7.30;;
81896;SDS011;71360;43.506;1.500;2024-03-22T11:09:23;14.13;;;6.93;;
81896;SDS011;71360;43.506;1.500;2024-03-22T11:11:52;16.75;;;6.93;;
81896;SDS011;71360;43.506;1.500;2024-03-22T11:14:18;14.43;;;7.53;;
81896;SDS011;71360;43.506;1.500;2024-03-22T11:16:45;16.35;;;6.97;;
81896;SDS011;71360;43.506;1.500;2024-03-22T11:19:11;16.88;;;7.13;;
81896;SDS011;71360;43.506;1.500;2024-03-22T11:21:37;19.30;;;7.10;;
81896;SDS011;71360;43.506;1.500;2024-03-22T11:24:04;18.30;;;7.22;;
81896;SDS011;71360;43.506;1.500;2024-03-22T11:26:30;17.65;;;7.38;;
81896;SDS011;71360;43.506;1.500;2024-03-22T11:28:55;15.23;;;7.07;;
81896;SDS011;71360;43.506;1.500;2024-03-22T11:31:22;16.70;;;7.65;;
81896;SDS011;71360;43.506;1.500;2024-03-22T11:33:52;15.32;;;7.20;;
81896;SDS011;71360;43.506;1.500;2024-03-22T11:36:19;15.23;;;7.10;;
81896;SDS011;71360;43.506;1.500;2024-03-22T11:38:45;17.75;;;6.90;;
81896;SDS011;71360;43.506;1.500;2024-03-22T11:41:13;15.77;;;7.32;;
81896;SDS011;71360;43.506;1.500;2024-03-22T11:43:42;12.95;;;6.35;;
81896;SDS011;71360;43.506;1.500;2024-03-22T11:46:08;14.65;;;6.50;;
81896;SDS011;71360;43.506;1.500;2024-03-22T11:48:38;14.23;;;6.33;;
81896;SDS011;71360;43.506;1.500;2024-03-22T11:51:07;17.63;;;7.00;;
81896;SDS011;71360;43.506;1.500;2024-03-22T11:53:33;18.08;;;7.03;;
81896;SDS011;71360;43.506;1.500;2024-03-22T11:56:00;14.60;;;7.17;;
81896;SDS011;71360;43.506;1.500;2024-03-22T11:58:28;16.10;;;6.57;;
81896;SDS011;71360;43.506;1.500;2024-03-22T12:00:55;13.50;;;5.40;;
81896;SDS011;71360;43.506;1.500;2024-03-22T12:03:21;13.55;;;5.50;;
81896;SDS011;71360;43.506;1.500;2024-03-22T12:05:47;11.63;;;5.10;;
81896;SDS011;71360;43.506;1.500;2024-03-22T12:08:16;12.10;;;4.97;;
81896;SDS011;71360;43.506;1.500;2024-03-22T12:10:42;9.73;;;5.07;;
81896;SDS011;71360;43.506;1.500;2024-03-22T12:13:08;12.48;;;5.80;;
81896;SDS011;71360;43.506;1.500;2024-03-22T12:15:34;13.52;;;5.72;;
81896;SDS011;71360;43.506;1.500;2024-03-22T12:18:00;14.60;;;6.00;;
81896;SDS011;71360;43.506;1.500;2024-03-22T12:20:26;14.10;;;6.00;;
81896;SDS011;71360;43.506;1.500;2024-03-22T12:22:52;13.80;;;5.35;;
81896;SDS011;71360;43.506;1.500;2024-03-22T12:25:17;13.35;;;5.75;;
81896;SDS011;71360;43.506;1.500;2024-03-22T12:27:43;14.90;;;5.90;;
81896;SDS011;71360;43.506;1.500;2024-03-22T12:30:09;12.30;;;5.40;;
81896;SDS011;71360;43.506;1.500;2024-03-22T12:32:36;13.48;;;5.65;;
81896;SDS011;71360;43.506;1.500;2024-03-22T12:35:01;18.57;;;6.20;;
81896;SDS011;71360;43.506;1.500;2024-03-22T12:37:27;15.43;;;5.80;;
81896;SDS011;71360;43.506;1.500;2024-03-22T12:39:52;10.80;;;5.60;;
81896;SDS011;71360;43.506;1.500;2024-03-22T12:42:18;12.33;;;5.47;;
81896;SDS011;71360;43.506;1.500;2024-03-22T12:44:45;14.82;;;5.60;;
81896;SDS011;71360;43.506;1.500;2024-03-22T12:47:10;16.57;;;5.37;;
81896;SDS011;71360;43.506;1.500;2024-03-22T12:49:36;11.60;;;4.47;;
81896;SDS011;71360;43.506;1.500;2024-03-22T12:52:01;12.63;;;4.97;;
81896;SDS011;71360;43.506;1.500;2024-03-22T12:54:29;9.45;;;4.45;;
81896;SDS011;71360;43.506;1.500;2024-03-22T12:56:54;8.47;;;4.30;;
81896;SDS011;71360;43.506;1.500;2024-03-22T12:59:20;13.98;;;3.97;;
81896;SDS011;71360;43.506;1.500;2024-03-22T13:01:46;9.50;;;4.10;;
81896;SDS011;71360;43.506;1.500;2024-03-22T13:04:11;12.15;;;4.13;;
81896;SDS011;71360;43.506;1.500;2024-03-22T13:06:37;12.05;;;4.10;;
81896;SDS011;71360;43.506;1.500;2024-03-22T13:09:03;11.20;;;4.17;;
81896;SDS011;71360;43.506;1.500;2024-03-22T13:11:29;9.63;;;4.45;;
81896;SDS011;71360;43.506;1.500;2024-03-22T13:13:56;11.90;;;4.80;;
81896;SDS011;71360;43.506;1.500;2024-03-22T13:16:22;14.47;;;4.77;;
81896;SDS011;71360;43.506;1.500;2024-03-22T13:18:48;11.93;;;4.32;;
81896;SDS011;71360;43.506;1.500;2024-03-22T13:21:14;11.10;;;4.63;;
81896;SDS011;71360;43.506;1.500;2024-03-22T13:23:39;13.87;;;4.67;;
81896;SDS011;71360;43.506;1.500;2024-03-22T13:26:05;14.20;;;4.80;;
81896;SDS011;71360;43.506;1.500;2024-03-22T13:28:31;12.10;;;4.65;;
81896;SDS011;71360;43.506;1.500;2024-03-22T13:31:04;13.30;;;4.67;;
81896;SDS011;71360;43.506;1.500;2024-03-22T13:33:33;14.85;;;4.38;;
81896;SDS011;71360;43.506;1.500;2024-03-22T13:35:59;13.43;;;4.07;;
81896;SDS011;71360;43.506;1.500;2024-03-22T13:38:25;13.73;;;3.65;;
81896;SDS011;71360;43.506;1.500;2024-03-22T13:40:55;10.05;;;3.65;;
81896;SDS011;71360;43.506;1.500;2024-03-22T13:43:21;14.30;;;3.53;;
81896;SDS011;71360;43.506;1.500;2024-03-22T13:45:48;13.65;;;3.50;;
81896;SDS011;71360;43.506;1.500;2024-03-22T13:48:19;11.23;;;3.75;;
81896;SDS011;71360;43.506;1.500;2024-03-22T13:50:49;11.98;;;4.20;;
81896;SDS011;71360;43.506;1.500;2024-03-22T13:53:15;9.93;;;3.63;;
81896;SDS011;71360;43.506;1.500;2024-03-22T13:55:42;14.37;;;3.87;;
81896;SDS011;71360;43.506;1.500;2024-03-22T13:58:08;11.65;;;3.90;;
81896;SDS011;71360;43.506;1.500;2024-03-22T14:00:33;14.73;;;3.90;;
81896;SDS011;71360;43.506;1.500;2024-03-22T14:02:59;14.70;;;4.10;;
81896;SDS011;71360;43.506;1.500;2024-03-22T14:05:24;13.47;;;3.90;;
81896;SDS011;71360;43.506;1.500;2024-03-22T14:07:50;10.37;;;3.67;;
81896;SDS011;71360;43.506;1.500;2024-03-22T14:10:16;16.17;;;4.37;;
81896;SDS011;71360;43.506;1.500;2024-03-22T14:12:42;14.57;;;4.00;;
81896;SDS011;71360;43.506;1.500;2024-03-22T14:15:08;13.40;;;4.10;;
81896;SDS011;71360;43.506;1.500;2024-03-22T14:17:34;13.32;;;3.70;;
81896;SDS011;71360;43.506;1.500;2024-03-22T14:20:00;15.73;;;3.85;;
81896;SDS011;71360;43.506;1.500;2024-03-22T14:22:25;13.03;;;3.80;;
81896;SDS011;71360;43.506;1.500;2024-03-22T14:24:51;15.10;;;4.07;;